Aérodrome :
LOGIN :

S'inscrire | Disclaimer

   EN    FR    IT 

 










Légende :    VFR   VFR Marginal   IFR   IFR Intensif   IFR Très Intensif
Visi : 
Plafond : 
>= 8 km
>= 3000ft
5 à 8 km
1000 à 3000 ft
1500m à 5 km
500 à 1000 ft
800 à 1500m
200 à 500 ft
< 800m
< 200 ft
Symboles :   Orages  Brouillard  Fortes neiges  Fortes précipitations  Vent > 20 kt
SIGMETs :   Divers  Orages  Givrage  Turbulence  Onde Orograph.  Cendres Volcan.







- Altitude de l'aérodrome : 13 ft
- Code IATA : OST


EBOS - Oostend bruges Int.

DERNIER METAR :
  • 280720Z 21015KT 9999 FEW013 SCT025 03/01 Q0988 TEMPO 22015G25KT

METARs EXPIRÉS :
  • 280650Z 21018KT 9999 FEW015TCU SCT025 03/01 Q0988 TEMPO 22020G30KT
  • 280620Z 22016KT 9999 -SHRA FEW015TCU BKN025 04/02 Q0988 TEMPO 22020G30KT 4000 SHRA
  • 280550Z 22017KT 9999 FEW016TCU SCT025 BKN040 04/02 Q0987 TEMPO 22020G30KT 4000 SHRA
  • 280520Z 22018KT 9999 FEW015TCU SCT020 04/02 Q0987 TEMPO 22020G30KT 4000 SHRA
  • 280450Z 21019KT 9999 -SHRA FEW010 SCT016CB BKN022 04/02 Q0986 TEMPO 21020G30KT 4000 SHRA

TAF TAF EBOS
Valide du 28 à 06h jusqu'au 01 à 12h UTC


280500Z 2806/0112 20015G25KT 9999 SCT012 SCT030
PROB40
TEMPO 2806/2809 23022G35KT 3500 SHRA TSRAGS BKN006 BKN014CB
PROB30
TEMPO 2809/2818 SHRA BKN014TCU
BECMG 2812/2814 26015G25KT
PROB40
TEMPO 2818/0101 23020G30KT 3000 SHRA RA BKN008 BKN014CB
TEMPO 0103/0107 27022G35KT
Pas de NOTAMs connus pour ce terrain.



MET'MAP, la Météo Aéronautique d'un coup d'oeil ! - Copyright ORBIFLY Décembre 2007 - Disclaimer

ORBIFLY MET'MAP TEAM :

Programmation & Développement : Alexandra Zaïnal
Conception & Développement : Baudouin d'Aumeries
Co-Programmation & Développement : Marc-Olivier Méhu
Soutien technique & logistique : Manuel Goepfert

Contact : metmap@orbifly.com




SOURCES & CREDITS :

   NOAA